createdAt,value
2019-01-04T03:54:10.912Z,12.4
2019-01-04T04:04:10.117Z,12.5
2019-01-04T04:14:09.308Z,13.1
2019-01-04T04:24:08.511Z,12.9
2019-01-04T04:34:07.720Z,12.6
2019-01-04T04:44:06.924Z,13.2
2019-01-04T04:54:06.149Z,13.1
2019-01-04T05:04:05.443Z,12.8
2019-01-04T05:14:04.735Z,12.5
2019-01-04T05:24:04.036Z,13.2
2019-01-04T05:34:03.325Z,12.5
2019-01-04T05:44:02.614Z,13.2
2019-01-04T05:54:01.869Z,12.5
2019-01-04T06:04:01.071Z,12.8
2019-01-04T06:14:00.280Z,12.9
2019-01-04T06:23:59.480Z,13.1
2019-01-04T06:33:58.680Z,13.3
2019-01-04T06:43:57.885Z,13.3
2019-01-04T06:53:57.083Z,12.8
2019-01-04T07:03:56.291Z,12.7
2019-01-04T07:13:55.491Z,13.2
2019-01-04T07:23:54.686Z,12.4
2019-01-04T07:33:53.891Z,13.2
2019-01-04T07:43:53.100Z,12.6
2019-01-04T07:53:52.297Z,13.2
2019-01-04T08:03:51.491Z,13.4
2019-01-04T08:13:50.699Z,13
2019-01-04T08:23:49.900Z,13.4
2019-01-04T08:33:49.096Z,13.7
2019-01-04T08:43:48.300Z,13.7
2019-01-04T08:53:47.499Z,14
2019-01-04T09:03:46.707Z,14.2
2019-01-04T09:13:45.903Z,14.7
2019-01-04T09:23:45.108Z,14.2
2019-01-04T09:33:44.312Z,14.5
2019-01-04T09:43:43.509Z,14.4
2019-01-04T09:53:42.710Z,13.9
2019-01-04T10:03:41.906Z,14.6
2019-01-04T10:13:41.107Z,13.6
2019-01-04T10:23:40.310Z,14.2
2019-01-04T10:33:39.506Z,14.7
2019-01-04T10:43:38.708Z,14.4
2019-01-04T10:53:37.918Z,14.4
2019-01-04T11:03:37.118Z,14.3
2019-01-04T11:13:36.327Z,14.4
2019-01-04T11:23:35.528Z,14.4
2019-01-04T11:33:34.739Z,14.4
2019-01-04T11:43:33.941Z,14.4
2019-01-04T11:53:33.157Z,14.2
2019-01-04T12:03:32.354Z,13.8
2019-01-04T12:13:31.562Z,13.2
2019-01-04T12:23:30.783Z,12.7
2019-01-04T12:33:29.967Z,13.2
2019-01-04T12:43:29.170Z,12.9
2019-01-04T12:53:28.380Z,13
2019-01-04T13:03:27.574Z,12.9
2019-01-04T13:13:26.779Z,12.7
2019-01-04T13:23:25.981Z,12.6
2019-01-04T13:33:25.189Z,13.4
2019-01-04T13:43:24.390Z,13.1
2019-01-04T13:53:23.588Z,12.6
2019-01-04T14:03:22.798Z,12.8
2019-01-04T14:13:21.999Z,13.1
2019-01-04T14:23:21.195Z,12.5
2019-01-04T14:33:20.404Z,12.9
2019-01-04T14:43:19.595Z,13.1
2019-01-04T14:53:18.806Z,13
2019-01-04T15:03:17.997Z,13.1
2019-01-04T15:13:17.205Z,12.5
2019-01-04T15:23:16.402Z,12.8
2019-01-04T15:33:15.606Z,12.6
2019-01-04T15:43:14.803Z,13
2019-01-04T15:53:14.013Z,13.1
2019-01-04T16:13:12.419Z,12.7
2019-01-04T16:23:11.630Z,12.7
2019-01-04T16:33:10.833Z,13.3
2019-01-04T16:43:10.051Z,13.2
2019-01-04T16:53:09.241Z,12.5
2019-01-04T17:03:08.455Z,13
2019-01-04T17:13:07.664Z,12.6
2019-01-04T17:23:06.869Z,12.4
2019-01-04T17:33:06.079Z,12.7
2019-01-04T17:43:05.290Z,13.2
2019-01-04T17:53:04.498Z,12.5
2019-01-04T18:03:03.696Z,13
2019-01-04T18:13:02.910Z,12.9
2019-01-04T18:23:02.126Z,12.7
2019-01-04T18:33:01.329Z,12.7
2019-01-04T18:43:00.527Z,13.1
2019-01-04T18:52:59.738Z,13.2
2019-01-04T19:02:58.951Z,13.2
2019-01-04T19:12:58.169Z,13.1
2019-01-04T19:22:57.380Z,12.8
2019-01-04T19:32:56.585Z,12.9
2019-01-04T19:42:55.806Z,13.1
2019-01-04T19:52:55.015Z,13.1
2019-01-04T20:02:54.217Z,13
2019-01-04T20:12:53.440Z,13
2019-01-04T20:22:52.649Z,13.2
2019-01-04T20:32:51.869Z,13
2019-01-04T20:42:51.068Z,13.1
2019-01-04T20:52:50.320Z,13.2
2019-01-04T21:02:49.496Z,12.8
2019-01-04T21:12:48.688Z,12.7
2019-01-04T21:22:47.902Z,13.1
2019-01-04T21:32:47.109Z,12.4
2019-01-04T21:42:46.313Z,12.6
2019-01-04T21:52:45.515Z,13.1
2019-01-04T22:02:44.717Z,13.1
2019-01-04T22:12:43.926Z,12.7
2019-01-04T22:22:43.127Z,12.9
2019-01-04T22:32:42.331Z,13.1
2019-01-04T22:42:41.534Z,13
2019-01-04T22:52:40.741Z,13.2
2019-01-04T23:02:39.945Z,12.7
2019-01-04T23:12:39.146Z,12.5
2019-01-04T23:22:38.349Z,13.3
2019-01-04T23:32:37.550Z,12.5
2019-01-04T23:42:36.750Z,12.5
2019-01-04T23:52:35.958Z,13
